KJAX/JAX METAR and TAF weather

Enter ICAO airport designator
Station Type Date Time Source
KJAX METAR 2021/05/12 04:56 UTC NOAA

KJAX 120456Z 25005KT 10SM BKN150 OVC250 22/21 A3007 RMK AO2 SLP182 T02170206 403110189 $


Station Type Date Time Source
KJAX Decoded METAR 2021/05/12 04:56 UTC NOAA

JACKSONVILLE INTERNATIONAL, FL, United States (KJAX) 30-30N 81-42W 7M
May 12, 2021 - 12:56 AM EDT / 2021.05.12 0456 UTC
Wind: from the WSW (250 degrees) at 6 MPH (5 KT):0
Visibility: 10 mile(s):0
Sky conditions: overcast
Temperature: 71.1 F (21.7 C)
Dew Point: 69.1 F (20.6 C)
Relative Humidity: 93%
Pressure (altimeter): 30.07 in. Hg (1018 hPa)
ob: KJAX 120456Z 25005KT 10SM BKN150 OVC250 22/21 A3007 RMK AO2 SLP182 T02170206 403110189
cycle: 5

Station Type Date Time Source
KJAX TAF 2021/05/12 06:22 UTC NOAA

TAF KJAX 120520Z 1206/1306 22004KT P6SM VCSH SCT050 BKN100 OVC200
FM120800 24003KT P6SM SCT015 OVC035
FM121300 27007KT P6SM BKN100
FM121800 30009KT P6SM VCSH BKN060
FM122000 35010KT 6SM SHRA VCTS SCT025CB OVC060
FM130000 03012KT P6SM VCSH SCT015 OVC025

Example: see airport list